Impacts METAR Board
IDs:

KRSL - Russell Muni, KS, US

Updated at: 1900 UTC 02 Oct 2022
Potential Impact None Slight Moderate High
Time 02/07Z 02/08Z 02/09Z 02/10Z 02/11Z 02/12Z 02/13Z 02/14Z 02/15Z 02/16Z 02/17Z 02/18Z 02/19Z
Temp57 58 58 57 56 57 55 60 68 74 77 79 81
Dewpt39 38 38 38 38 37 37 38 39 39 38 39 39
Altim30.15 30.16 30.17 30.18 30.19 30.20 30.21 30.23 30.24 30.25 30.25 30.23 30.21
VIS10 10 10 10 10 10 10 10 10 10 10 10 10
CIG-- -- -- -- -- -- -- -- -- -- -- -- --
CoverCLRCLRCLRCLRCLRCLRCLRCLRCLRCLRCLRCLRCLR
FltCatVFRVFRVFRVFRVFRVFRVFRVFRVFRVFRVFRVFRVFR
WX--------------------------
WDir140150150150150150150160170170190160180
WSpd7 10 9 11 10 11 10 9 11 12 12 10 8
WGst-- -- -- -- -- -- -- -- -- -- -- 17 --
Raw hourly METARs
KRSL 020653Z AUTO 14007KT 10SM CLR 14/04 A3015 RMK AO2 SLP198 T01390039
KRSL 020753Z AUTO 15010KT 10SM CLR 14/03 A3016 RMK AO2 SLP200 T01440033
KRSL 020853Z AUTO 15009KT 10SM CLR 14/03 A3017 RMK AO2 SLP203 T01440033 53006
KRSL 020953Z AUTO 15011KT 10SM CLR 14/03 A3018 RMK AO2 SLP207 T01390033
KRSL 021053Z AUTO 15010KT 10SM CLR 13/03 A3019 RMK AO2 SLP213 T01330033
KRSL 021153Z AUTO 15011KT 10SM CLR 14/03 A3020 RMK AO2 SLP217 T01390028 10150 20128 53010
KRSL 021253Z AUTO 15010KT 10SM CLR 13/03 A3021 RMK AO2 SLP224 T01280028
KRSL 021353Z AUTO 16009KT 10SM CLR 16/03 A3023 RMK AO2 SLP230 T01560033
KRSL 021453Z AUTO 17011KT 10SM CLR 20/04 A3024 RMK AO2 SLP232 T02000039 53013
KRSL 021553Z AUTO 17012KT 10SM CLR 23/04 A3025 RMK AO2 SLP232 T02330039
KRSL 021653Z AUTO 19012KT 10SM CLR 25/03 A3025 RMK AO2 SLP231 T02500033
KRSL 021753Z AUTO 16010G17KT 10SM CLR 26/04 A3023 RMK AO2 SLP226 T02610039 10261 20128 58004
KRSL 021853Z AUTO 18008KT 10SM CLR 27/04 A3021 RMK AO2 SLP219 T02720039



Page loaded:  19:43 UTC  |   12:43 PM Pacific  |   01:43 PM Mountain  |   02:43 PM Central  |   03:43 PM Eastern

 

ADVISORIES

FORECASTS

FORECASTS

OBSERVATIONS

USER TOOLS

ABOUT US